<?xml version="1.0" encoding="UTF-8" standalone="no" ?>
<gpx xmlns="http://www.topografix.com/GPX/1/1" xmlns:xsi="http://www.w3.org/2001/XMLSchema-instance" xsi:schemaLocation="http://www.topografix.com/GPX/1/1 http://www.topografix.com/GPX/1/1/gpx.xsd" version="1.1" creator="VisuGPX - https://www.visugpx.com">
  <metadata>
    <name>2019 - 10.5km tracé final - Garmin Connect</name>
    <desc><![CDATA[Marche Meulin 2019]]></desc>
  </metadata>
  <trk>
    <name><![CDATA[2019 - 10.5km tracé final - Garmin Connect]]></name>
    <trkseg>
      <trkpt lat="46.36491" lon="4.49073">
        <ele>392.1</ele>
        <time>2019-01-29T20:31:58Z</time>
      </trkpt>
      <trkpt lat="46.36497" lon="4.49079">
        <ele>392</ele>
        <time>2019-01-29T20:31:58Z</time>
      </trkpt>
      <trkpt lat="46.36495" lon="4.49091">
        <ele>391.7</ele>
        <time>2019-01-29T20:31:59Z</time>
      </trkpt>
      <trkpt lat="46.36488" lon="4.49126">
        <ele>390.2</ele>
        <time>2019-01-29T20:32:00Z</time>
      </trkpt>
      <trkpt lat="46.36471" lon="4.49215">
        <ele>382.7</ele>
        <time>2019-01-29T20:32:02Z</time>
      </trkpt>
      <trkpt lat="46.36464" lon="4.49232">
        <ele>380.5</ele>
        <time>2019-01-29T20:32:02Z</time>
      </trkpt>
      <trkpt lat="46.36454" lon="4.49242">
        <ele>379</ele>
        <time>2019-01-29T20:32:02Z</time>
      </trkpt>
      <trkpt lat="46.36433" lon="4.49255">
        <ele>377.8</ele>
        <time>2019-01-29T20:32:03Z</time>
      </trkpt>
      <trkpt lat="46.36422" lon="4.49261">
        <ele>377.8</ele>
        <time>2019-01-29T20:32:04Z</time>
      </trkpt>
      <trkpt lat="46.36395" lon="4.49276">
        <ele>381</ele>
        <time>2019-01-29T20:32:05Z</time>
      </trkpt>
      <trkpt lat="46.36377" lon="4.49278">
        <ele>383.7</ele>
        <time>2019-01-29T20:32:05Z</time>
      </trkpt>
      <trkpt lat="46.36371" lon="4.49284">
        <ele>385.2</ele>
        <time>2019-01-29T20:32:05Z</time>
      </trkpt>
      <trkpt lat="46.36368" lon="4.49294">
        <ele>386.6</ele>
        <time>2019-01-29T20:32:06Z</time>
      </trkpt>
      <trkpt lat="46.36361" lon="4.49313">
        <ele>389.8</ele>
        <time>2019-01-29T20:32:06Z</time>
      </trkpt>
      <trkpt lat="46.36342" lon="4.49375">
        <ele>398.4</ele>
        <time>2019-01-29T20:32:08Z</time>
      </trkpt>
      <trkpt lat="46.36327" lon="4.49428">
        <ele>407</ele>
        <time>2019-01-29T20:32:09Z</time>
      </trkpt>
      <trkpt lat="46.36318" lon="4.49514">
        <ele>417.1</ele>
        <time>2019-01-29T20:32:11Z</time>
      </trkpt>
      <trkpt lat="46.36306" lon="4.49606">
        <ele>429.1</ele>
        <time>2019-01-29T20:32:13Z</time>
      </trkpt>
      <trkpt lat="46.36288" lon="4.49629">
        <ele>436.4</ele>
        <time>2019-01-29T20:32:14Z</time>
      </trkpt>
      <trkpt lat="46.3632" lon="4.49674">
        <ele>444.4</ele>
        <time>2019-01-29T20:32:16Z</time>
      </trkpt>
      <trkpt lat="46.36337" lon="4.49704">
        <ele>447.4</ele>
        <time>2019-01-29T20:32:16Z</time>
      </trkpt>
      <trkpt lat="46.36336" lon="4.49722">
        <ele>449.5</ele>
        <time>2019-01-29T20:32:17Z</time>
      </trkpt>
      <trkpt lat="46.3633" lon="4.49739">
        <ele>452.4</ele>
        <time>2019-01-29T20:32:17Z</time>
      </trkpt>
      <trkpt lat="46.36322" lon="4.49731">
        <ele>453</ele>
        <time>2019-01-29T20:32:18Z</time>
      </trkpt>
      <trkpt lat="46.36297" lon="4.49718">
        <ele>455.4</ele>
        <time>2019-01-29T20:32:19Z</time>
      </trkpt>
      <trkpt lat="46.3625" lon="4.49701">
        <ele>460.2</ele>
        <time>2019-01-29T20:32:20Z</time>
      </trkpt>
      <trkpt lat="46.36223" lon="4.49679">
        <ele>462</ele>
        <time>2019-01-29T20:32:21Z</time>
      </trkpt>
      <trkpt lat="46.36193" lon="4.49649">
        <ele>462.7</ele>
        <time>2019-01-29T20:32:22Z</time>
      </trkpt>
      <trkpt lat="46.36151" lon="4.49611">
        <ele>464.2</ele>
        <time>2019-01-29T20:32:24Z</time>
      </trkpt>
      <trkpt lat="46.36153" lon="4.49628">
        <ele>466.7</ele>
        <time>2019-01-29T20:32:24Z</time>
      </trkpt>
      <trkpt lat="46.36166" lon="4.49655">
        <ele>469</ele>
        <time>2019-01-29T20:32:25Z</time>
      </trkpt>
      <trkpt lat="46.36174" lon="4.49664">
        <ele>469</ele>
        <time>2019-01-29T20:32:26Z</time>
      </trkpt>
      <trkpt lat="46.36204" lon="4.49702">
        <ele>469.6</ele>
        <time>2019-01-29T20:32:27Z</time>
      </trkpt>
      <trkpt lat="46.3621" lon="4.49716">
        <ele>471.1</ele>
        <time>2019-01-29T20:32:27Z</time>
      </trkpt>
      <trkpt lat="46.3622" lon="4.4973">
        <ele>472.1</ele>
        <time>2019-01-29T20:32:28Z</time>
      </trkpt>
      <trkpt lat="46.36245" lon="4.49768">
        <ele>474.3</ele>
        <time>2019-01-29T20:32:29Z</time>
      </trkpt>
      <trkpt lat="46.3626" lon="4.49797">
        <ele>476.1</ele>
        <time>2019-01-29T20:32:30Z</time>
      </trkpt>
      <trkpt lat="46.36268" lon="4.49826">
        <ele>478.4</ele>
        <time>2019-01-29T20:32:30Z</time>
      </trkpt>
      <trkpt lat="46.36271" lon="4.49851">
        <ele>479.7</ele>
        <time>2019-01-29T20:32:31Z</time>
      </trkpt>
      <trkpt lat="46.3627" lon="4.49872">
        <ele>480.2</ele>
        <time>2019-01-29T20:32:32Z</time>
      </trkpt>
      <trkpt lat="46.36266" lon="4.4989">
        <ele>481.1</ele>
        <time>2019-01-29T20:32:32Z</time>
      </trkpt>
      <trkpt lat="46.3626" lon="4.4991">
        <ele>481.1</ele>
        <time>2019-01-29T20:32:32Z</time>
      </trkpt>
      <trkpt lat="46.3625" lon="4.49932">
        <ele>482.3</ele>
        <time>2019-01-29T20:32:33Z</time>
      </trkpt>
      <trkpt lat="46.36242" lon="4.49962">
        <ele>483</ele>
        <time>2019-01-29T20:32:34Z</time>
      </trkpt>
      <trkpt lat="46.36238" lon="4.49994">
        <ele>483.5</ele>
        <time>2019-01-29T20:32:35Z</time>
      </trkpt>
      <trkpt lat="46.3624" lon="4.50024">
        <ele>484.3</ele>
        <time>2019-01-29T20:32:35Z</time>
      </trkpt>
      <trkpt lat="46.36243" lon="4.50045">
        <ele>485.3</ele>
        <time>2019-01-29T20:32:36Z</time>
      </trkpt>
      <trkpt lat="46.36229" lon="4.5011">
        <ele>493.4</ele>
        <time>2019-01-29T20:32:37Z</time>
      </trkpt>
      <trkpt lat="46.36219" lon="4.50175">
        <ele>496.3</ele>
        <time>2019-01-29T20:32:39Z</time>
      </trkpt>
      <trkpt lat="46.36218" lon="4.50187">
        <ele>496.3</ele>
        <time>2019-01-29T20:32:39Z</time>
      </trkpt>
      <trkpt lat="46.36191" lon="4.50189">
        <ele>498.6</ele>
        <time>2019-01-29T20:32:40Z</time>
      </trkpt>
      <trkpt lat="46.36164" lon="4.50184">
        <ele>502.5</ele>
        <time>2019-01-29T20:32:41Z</time>
      </trkpt>
      <trkpt lat="46.3615" lon="4.50183">
        <ele>504.5</ele>
        <time>2019-01-29T20:32:41Z</time>
      </trkpt>
      <trkpt lat="46.36134" lon="4.50185">
        <ele>506.7</ele>
        <time>2019-01-29T20:32:42Z</time>
      </trkpt>
      <trkpt lat="46.36106" lon="4.50193">
        <ele>510.3</ele>
        <time>2019-01-29T20:32:43Z</time>
      </trkpt>
      <trkpt lat="46.36072" lon="4.50204">
        <ele>515.8</ele>
        <time>2019-01-29T20:32:44Z</time>
      </trkpt>
      <trkpt lat="46.36058" lon="4.50211">
        <ele>518.6</ele>
        <time>2019-01-29T20:32:45Z</time>
      </trkpt>
      <trkpt lat="46.36044" lon="4.50217">
        <ele>521.8</ele>
        <time>2019-01-29T20:32:45Z</time>
      </trkpt>
      <trkpt lat="46.36041" lon="4.50218">
        <ele>522.6</ele>
        <time>2019-01-29T20:32:45Z</time>
      </trkpt>
      <trkpt lat="46.3604" lon="4.50222">
        <ele>522.5</ele>
        <time>2019-01-29T20:32:45Z</time>
      </trkpt>
      <trkpt lat="46.36041" lon="4.5032">
        <ele>522.4</ele>
        <time>2019-01-29T20:32:48Z</time>
      </trkpt>
      <trkpt lat="46.36041" lon="4.50347">
        <ele>520.9</ele>
        <time>2019-01-29T20:32:48Z</time>
      </trkpt>
      <trkpt lat="46.36037" lon="4.50368">
        <ele>520.2</ele>
        <time>2019-01-29T20:32:49Z</time>
      </trkpt>
      <trkpt lat="46.36032" lon="4.50369">
        <ele>520.8</ele>
        <time>2019-01-29T20:32:49Z</time>
      </trkpt>
      <trkpt lat="46.36022" lon="4.5036">
        <ele>522.9</ele>
        <time>2019-01-29T20:32:49Z</time>
      </trkpt>
      <trkpt lat="46.36013" lon="4.50355">
        <ele>524.6</ele>
        <time>2019-01-29T20:32:50Z</time>
      </trkpt>
      <trkpt lat="46.35963" lon="4.50328">
        <ele>531.2</ele>
        <time>2019-01-29T20:32:51Z</time>
      </trkpt>
      <trkpt lat="46.35943" lon="4.50316">
        <ele>531.5</ele>
        <time>2019-01-29T20:32:52Z</time>
      </trkpt>
      <trkpt lat="46.35925" lon="4.50307">
        <ele>529.9</ele>
        <time>2019-01-29T20:32:53Z</time>
      </trkpt>
      <trkpt lat="46.35923" lon="4.50303">
        <ele>529.7</ele>
        <time>2019-01-29T20:32:53Z</time>
      </trkpt>
      <trkpt lat="46.35958" lon="4.50183">
        <ele>535.4</ele>
        <time>2019-01-29T20:32:56Z</time>
      </trkpt>
      <trkpt lat="46.35957" lon="4.5018">
        <ele>535.4</ele>
        <time>2019-01-29T20:32:56Z</time>
      </trkpt>
      <trkpt lat="46.35917" lon="4.50173">
        <ele>529.8</ele>
        <time>2019-01-29T20:32:57Z</time>
      </trkpt>
      <trkpt lat="46.35903" lon="4.50164">
        <ele>526.2</ele>
        <time>2019-01-29T20:32:58Z</time>
      </trkpt>
      <trkpt lat="46.35886" lon="4.5014">
        <ele>522.1</ele>
        <time>2019-01-29T20:32:59Z</time>
      </trkpt>
      <trkpt lat="46.35856" lon="4.50093">
        <ele>514.7</ele>
        <time>2019-01-29T20:33:00Z</time>
      </trkpt>
      <trkpt lat="46.35825" lon="4.5005">
        <ele>505.9</ele>
        <time>2019-01-29T20:33:01Z</time>
      </trkpt>
      <trkpt lat="46.35809" lon="4.50044">
        <ele>502.3</ele>
        <time>2019-01-29T20:33:02Z</time>
      </trkpt>
      <trkpt lat="46.35737" lon="4.50002">
        <ele>484.8</ele>
        <time>2019-01-29T20:33:05Z</time>
      </trkpt>
      <trkpt lat="46.35744" lon="4.5007">
        <ele>487.8</ele>
        <time>2019-01-29T20:33:06Z</time>
      </trkpt>
      <trkpt lat="46.35751" lon="4.50098">
        <ele>488.6</ele>
        <time>2019-01-29T20:33:07Z</time>
      </trkpt>
      <trkpt lat="46.35679" lon="4.50065">
        <ele>472.8</ele>
        <time>2019-01-29T20:33:09Z</time>
      </trkpt>
      <trkpt lat="46.3568" lon="4.50067">
        <ele>472.8</ele>
        <time>2019-01-29T20:33:09Z</time>
      </trkpt>
      <trkpt lat="46.35669" lon="4.50071">
        <ele>470.8</ele>
        <time>2019-01-29T20:33:10Z</time>
      </trkpt>
      <trkpt lat="46.35641" lon="4.50073">
        <ele>467</ele>
        <time>2019-01-29T20:33:11Z</time>
      </trkpt>
      <trkpt lat="46.35595" lon="4.50082">
        <ele>460.3</ele>
        <time>2019-01-29T20:33:12Z</time>
      </trkpt>
      <trkpt lat="46.35573" lon="4.50086">
        <ele>456.8</ele>
        <time>2019-01-29T20:33:13Z</time>
      </trkpt>
      <trkpt lat="46.3556" lon="4.50085">
        <ele>455.2</ele>
        <time>2019-01-29T20:33:13Z</time>
      </trkpt>
      <trkpt lat="46.35539" lon="4.50084">
        <ele>453</ele>
        <time>2019-01-29T20:33:14Z</time>
      </trkpt>
      <trkpt lat="46.35525" lon="4.50086">
        <ele>451.1</ele>
        <time>2019-01-29T20:33:15Z</time>
      </trkpt>
      <trkpt lat="46.35504" lon="4.50094">
        <ele>447.7</ele>
        <time>2019-01-29T20:33:15Z</time>
      </trkpt>
      <trkpt lat="46.35482" lon="4.50114">
        <ele>444.3</ele>
        <time>2019-01-29T20:33:16Z</time>
      </trkpt>
      <trkpt lat="46.35472" lon="4.50116">
        <ele>443.7</ele>
        <time>2019-01-29T20:33:17Z</time>
      </trkpt>
      <trkpt lat="46.35464" lon="4.50115">
        <ele>443.2</ele>
        <time>2019-01-29T20:33:17Z</time>
      </trkpt>
      <trkpt lat="46.35444" lon="4.50106">
        <ele>442.1</ele>
        <time>2019-01-29T20:33:18Z</time>
      </trkpt>
      <trkpt lat="46.35433" lon="4.501">
        <ele>441.2</ele>
        <time>2019-01-29T20:33:18Z</time>
      </trkpt>
      <trkpt lat="46.35397" lon="4.50074">
        <ele>438.2</ele>
        <time>2019-01-29T20:33:19Z</time>
      </trkpt>
      <trkpt lat="46.35367" lon="4.50046">
        <ele>435.1</ele>
        <time>2019-01-29T20:33:20Z</time>
      </trkpt>
      <trkpt lat="46.35337" lon="4.50025">
        <ele>432.2</ele>
        <time>2019-01-29T20:33:22Z</time>
      </trkpt>
      <trkpt lat="46.35312" lon="4.50009">
        <ele>429.8</ele>
        <time>2019-01-29T20:33:22Z</time>
      </trkpt>
      <trkpt lat="46.35298" lon="4.49995">
        <ele>428.3</ele>
        <time>2019-01-29T20:33:23Z</time>
      </trkpt>
      <trkpt lat="46.35239" lon="4.49935">
        <ele>421.5</ele>
        <time>2019-01-29T20:33:25Z</time>
      </trkpt>
      <trkpt lat="46.35211" lon="4.499">
        <ele>417</ele>
        <time>2019-01-29T20:33:27Z</time>
      </trkpt>
      <trkpt lat="46.3519" lon="4.49867">
        <ele>413.4</ele>
        <time>2019-01-29T20:33:28Z</time>
      </trkpt>
      <trkpt lat="46.35143" lon="4.4981">
        <ele>408.3</ele>
        <time>2019-01-29T20:33:30Z</time>
      </trkpt>
      <trkpt lat="46.35126" lon="4.49786">
        <ele>404.9</ele>
        <time>2019-01-29T20:33:31Z</time>
      </trkpt>
      <trkpt lat="46.35106" lon="4.49761">
        <ele>401.9</ele>
        <time>2019-01-29T20:33:31Z</time>
      </trkpt>
      <trkpt lat="46.35077" lon="4.49724">
        <ele>396.9</ele>
        <time>2019-01-29T20:33:33Z</time>
      </trkpt>
      <trkpt lat="46.35063" lon="4.49708">
        <ele>394.6</ele>
        <time>2019-01-29T20:33:33Z</time>
      </trkpt>
      <trkpt lat="46.35051" lon="4.49698">
        <ele>393.2</ele>
        <time>2019-01-29T20:33:34Z</time>
      </trkpt>
      <trkpt lat="46.35031" lon="4.49684">
        <ele>390.7</ele>
        <time>2019-01-29T20:33:35Z</time>
      </trkpt>
      <trkpt lat="46.35016" lon="4.49676">
        <ele>388.6</ele>
        <time>2019-01-29T20:33:35Z</time>
      </trkpt>
      <trkpt lat="46.3501" lon="4.49671">
        <ele>387.4</ele>
        <time>2019-01-29T20:33:35Z</time>
      </trkpt>
      <trkpt lat="46.35015" lon="4.49664">
        <ele>386.6</ele>
        <time>2019-01-29T20:33:36Z</time>
      </trkpt>
      <trkpt lat="46.35032" lon="4.49643">
        <ele>384.3</ele>
        <time>2019-01-29T20:33:36Z</time>
      </trkpt>
      <trkpt lat="46.35052" lon="4.49621">
        <ele>382.8</ele>
        <time>2019-01-29T20:33:37Z</time>
      </trkpt>
      <trkpt lat="46.35055" lon="4.49618">
        <ele>382.4</ele>
        <time>2019-01-29T20:33:37Z</time>
      </trkpt>
      <trkpt lat="46.35054" lon="4.49612">
        <ele>381.1</ele>
        <time>2019-01-29T20:33:37Z</time>
      </trkpt>
      <trkpt lat="46.35052" lon="4.49602">
        <ele>380.2</ele>
        <time>2019-01-29T20:33:38Z</time>
      </trkpt>
      <trkpt lat="46.35043" lon="4.49577">
        <ele>378.9</ele>
        <time>2019-01-29T20:33:38Z</time>
      </trkpt>
      <trkpt lat="46.35036" lon="4.49569">
        <ele>378.6</ele>
        <time>2019-01-29T20:33:39Z</time>
      </trkpt>
      <trkpt lat="46.35029" lon="4.49566">
        <ele>378.4</ele>
        <time>2019-01-29T20:33:39Z</time>
      </trkpt>
      <trkpt lat="46.35021" lon="4.49561">
        <ele>378.2</ele>
        <time>2019-01-29T20:33:39Z</time>
      </trkpt>
      <trkpt lat="46.35018" lon="4.49541">
        <ele>377.3</ele>
        <time>2019-01-29T20:33:40Z</time>
      </trkpt>
      <trkpt lat="46.35019" lon="4.49526">
        <ele>376.6</ele>
        <time>2019-01-29T20:33:40Z</time>
      </trkpt>
      <trkpt lat="46.35013" lon="4.49523">
        <ele>376.1</ele>
        <time>2019-01-29T20:33:40Z</time>
      </trkpt>
      <trkpt lat="46.35006" lon="4.49518">
        <ele>375.5</ele>
        <time>2019-01-29T20:33:40Z</time>
      </trkpt>
      <trkpt lat="46.3503" lon="4.49445">
        <ele>373</ele>
        <time>2019-01-29T20:33:42Z</time>
      </trkpt>
      <trkpt lat="46.3504" lon="4.49434">
        <ele>372.6</ele>
        <time>2019-01-29T20:33:43Z</time>
      </trkpt>
      <trkpt lat="46.35052" lon="4.49425">
        <ele>372.3</ele>
        <time>2019-01-29T20:33:43Z</time>
      </trkpt>
      <trkpt lat="46.35068" lon="4.49406">
        <ele>372.7</ele>
        <time>2019-01-29T20:33:44Z</time>
      </trkpt>
      <trkpt lat="46.35072" lon="4.49393">
        <ele>372.6</ele>
        <time>2019-01-29T20:33:44Z</time>
      </trkpt>
      <trkpt lat="46.35078" lon="4.49332">
        <ele>371.8</ele>
        <time>2019-01-29T20:33:46Z</time>
      </trkpt>
      <trkpt lat="46.35083" lon="4.49312">
        <ele>372.2</ele>
        <time>2019-01-29T20:33:46Z</time>
      </trkpt>
      <trkpt lat="46.351" lon="4.49293">
        <ele>372.7</ele>
        <time>2019-01-29T20:33:47Z</time>
      </trkpt>
      <trkpt lat="46.35106" lon="4.49283">
        <ele>372.7</ele>
        <time>2019-01-29T20:33:47Z</time>
      </trkpt>
      <trkpt lat="46.35111" lon="4.49274">
        <ele>372.4</ele>
        <time>2019-01-29T20:33:47Z</time>
      </trkpt>
      <trkpt lat="46.35121" lon="4.49244">
        <ele>368.8</ele>
        <time>2019-01-29T20:33:48Z</time>
      </trkpt>
      <trkpt lat="46.35127" lon="4.49225">
        <ele>367.4</ele>
        <time>2019-01-29T20:33:49Z</time>
      </trkpt>
      <trkpt lat="46.35141" lon="4.49193">
        <ele>366.4</ele>
        <time>2019-01-29T20:33:49Z</time>
      </trkpt>
      <trkpt lat="46.35145" lon="4.49184">
        <ele>366.7</ele>
        <time>2019-01-29T20:33:50Z</time>
      </trkpt>
      <trkpt lat="46.35146" lon="4.49172">
        <ele>366.3</ele>
        <time>2019-01-29T20:33:50Z</time>
      </trkpt>
      <trkpt lat="46.35148" lon="4.49137">
        <ele>365.1</ele>
        <time>2019-01-29T20:33:51Z</time>
      </trkpt>
      <trkpt lat="46.3515" lon="4.49101">
        <ele>362.7</ele>
        <time>2019-01-29T20:33:52Z</time>
      </trkpt>
      <trkpt lat="46.35138" lon="4.49053">
        <ele>360</ele>
        <time>2019-01-29T20:33:53Z</time>
      </trkpt>
      <trkpt lat="46.35131" lon="4.49012">
        <ele>362</ele>
        <time>2019-01-29T20:33:54Z</time>
      </trkpt>
      <trkpt lat="46.3513" lon="4.48975">
        <ele>364.1</ele>
        <time>2019-01-29T20:33:55Z</time>
      </trkpt>
      <trkpt lat="46.35129" lon="4.48956">
        <ele>364.5</ele>
        <time>2019-01-29T20:33:55Z</time>
      </trkpt>
      <trkpt lat="46.35121" lon="4.48935">
        <ele>366.3</ele>
        <time>2019-01-29T20:33:56Z</time>
      </trkpt>
      <trkpt lat="46.3511" lon="4.48901">
        <ele>366.7</ele>
        <time>2019-01-29T20:33:57Z</time>
      </trkpt>
      <trkpt lat="46.35109" lon="4.4885">
        <ele>365.7</ele>
        <time>2019-01-29T20:33:58Z</time>
      </trkpt>
      <trkpt lat="46.35105" lon="4.48808">
        <ele>367.3</ele>
        <time>2019-01-29T20:33:59Z</time>
      </trkpt>
      <trkpt lat="46.35102" lon="4.4879">
        <ele>367.8</ele>
        <time>2019-01-29T20:33:59Z</time>
      </trkpt>
      <trkpt lat="46.35103" lon="4.48792">
        <ele>367.6</ele>
        <time>2019-01-29T20:33:59Z</time>
      </trkpt>
      <trkpt lat="46.3511" lon="4.48801">
        <ele>366.2</ele>
        <time>2019-01-29T20:33:59Z</time>
      </trkpt>
      <trkpt lat="46.35116" lon="4.48805">
        <ele>365.7</ele>
        <time>2019-01-29T20:34:00Z</time>
      </trkpt>
      <trkpt lat="46.3512" lon="4.48805">
        <ele>365.4</ele>
        <time>2019-01-29T20:34:00Z</time>
      </trkpt>
      <trkpt lat="46.35126" lon="4.48804">
        <ele>365</ele>
        <time>2019-01-29T20:34:00Z</time>
      </trkpt>
      <trkpt lat="46.35143" lon="4.48804">
        <ele>364.1</ele>
        <time>2019-01-29T20:34:01Z</time>
      </trkpt>
      <trkpt lat="46.3516" lon="4.48803">
        <ele>364.1</ele>
        <time>2019-01-29T20:34:01Z</time>
      </trkpt>
      <trkpt lat="46.35179" lon="4.48803">
        <ele>365.5</ele>
        <time>2019-01-29T20:34:02Z</time>
      </trkpt>
      <trkpt lat="46.35184" lon="4.48803">
        <ele>366</ele>
        <time>2019-01-29T20:34:02Z</time>
      </trkpt>
      <trkpt lat="46.3519" lon="4.48801">
        <ele>366.8</ele>
        <time>2019-01-29T20:34:02Z</time>
      </trkpt>
      <trkpt lat="46.35189" lon="4.48795">
        <ele>367.1</ele>
        <time>2019-01-29T20:34:02Z</time>
      </trkpt>
      <trkpt lat="46.35189" lon="4.48782">
        <ele>367.9</ele>
        <time>2019-01-29T20:34:03Z</time>
      </trkpt>
      <trkpt lat="46.35185" lon="4.48773">
        <ele>367.8</ele>
        <time>2019-01-29T20:34:03Z</time>
      </trkpt>
      <trkpt lat="46.35179" lon="4.48755">
        <ele>367.1</ele>
        <time>2019-01-29T20:34:03Z</time>
      </trkpt>
      <trkpt lat="46.35175" lon="4.48699">
        <ele>367.6</ele>
        <time>2019-01-29T20:34:05Z</time>
      </trkpt>
      <trkpt lat="46.35173" lon="4.48684">
        <ele>367.5</ele>
        <time>2019-01-29T20:34:05Z</time>
      </trkpt>
      <trkpt lat="46.35163" lon="4.48577">
        <ele>367.4</ele>
        <time>2019-01-29T20:34:07Z</time>
      </trkpt>
      <trkpt lat="46.35163" lon="4.48553">
        <ele>366.7</ele>
        <time>2019-01-29T20:34:08Z</time>
      </trkpt>
      <trkpt lat="46.352" lon="4.48387">
        <ele>368.4</ele>
        <time>2019-01-29T20:34:12Z</time>
      </trkpt>
      <trkpt lat="46.35207" lon="4.48384">
        <ele>368.8</ele>
        <time>2019-01-29T20:34:12Z</time>
      </trkpt>
      <trkpt lat="46.35198" lon="4.48307">
        <ele>367</ele>
        <time>2019-01-29T20:34:14Z</time>
      </trkpt>
      <trkpt lat="46.35195" lon="4.48296">
        <ele>366.7</ele>
        <time>2019-01-29T20:34:14Z</time>
      </trkpt>
      <trkpt lat="46.35168" lon="4.48277">
        <ele>368.8</ele>
        <time>2019-01-29T20:34:15Z</time>
      </trkpt>
      <trkpt lat="46.35161" lon="4.48276">
        <ele>370.2</ele>
        <time>2019-01-29T20:34:16Z</time>
      </trkpt>
      <trkpt lat="46.35154" lon="4.48287">
        <ele>371.6</ele>
        <time>2019-01-29T20:34:16Z</time>
      </trkpt>
      <trkpt lat="46.35133" lon="4.48335">
        <ele>372.9</ele>
        <time>2019-01-29T20:34:17Z</time>
      </trkpt>
      <trkpt lat="46.35115" lon="4.48364">
        <ele>372.9</ele>
        <time>2019-01-29T20:34:18Z</time>
      </trkpt>
      <trkpt lat="46.35101" lon="4.4838">
        <ele>371.1</ele>
        <time>2019-01-29T20:34:19Z</time>
      </trkpt>
      <trkpt lat="46.35087" lon="4.48386">
        <ele>370.5</ele>
        <time>2019-01-29T20:34:19Z</time>
      </trkpt>
      <trkpt lat="46.35074" lon="4.48387">
        <ele>370.1</ele>
        <time>2019-01-29T20:34:20Z</time>
      </trkpt>
      <trkpt lat="46.35064" lon="4.48385">
        <ele>370.1</ele>
        <time>2019-01-29T20:34:20Z</time>
      </trkpt>
      <trkpt lat="46.35055" lon="4.4838">
        <ele>370.9</ele>
        <time>2019-01-29T20:34:20Z</time>
      </trkpt>
      <trkpt lat="46.35045" lon="4.48377">
        <ele>371.2</ele>
        <time>2019-01-29T20:34:21Z</time>
      </trkpt>
      <trkpt lat="46.35037" lon="4.48379">
        <ele>370.7</ele>
        <time>2019-01-29T20:34:21Z</time>
      </trkpt>
      <trkpt lat="46.35029" lon="4.48388">
        <ele>369.1</ele>
        <time>2019-01-29T20:34:21Z</time>
      </trkpt>
      <trkpt lat="46.35014" lon="4.48425">
        <ele>368.3</ele>
        <time>2019-01-29T20:34:22Z</time>
      </trkpt>
      <trkpt lat="46.35008" lon="4.4845">
        <ele>368.7</ele>
        <time>2019-01-29T20:34:23Z</time>
      </trkpt>
      <trkpt lat="46.35006" lon="4.48448">
        <ele>368.8</ele>
        <time>2019-01-29T20:34:23Z</time>
      </trkpt>
      <trkpt lat="46.34985" lon="4.48431">
        <ele>371.5</ele>
        <time>2019-01-29T20:34:24Z</time>
      </trkpt>
      <trkpt lat="46.34964" lon="4.48415">
        <ele>373.9</ele>
        <time>2019-01-29T20:34:25Z</time>
      </trkpt>
      <trkpt lat="46.34952" lon="4.48401">
        <ele>374.7</ele>
        <time>2019-01-29T20:34:25Z</time>
      </trkpt>
      <trkpt lat="46.34939" lon="4.48375">
        <ele>374.9</ele>
        <time>2019-01-29T20:34:26Z</time>
      </trkpt>
      <trkpt lat="46.34926" lon="4.48336">
        <ele>376.5</ele>
        <time>2019-01-29T20:34:27Z</time>
      </trkpt>
      <trkpt lat="46.34916" lon="4.483">
        <ele>375.7</ele>
        <time>2019-01-29T20:34:28Z</time>
      </trkpt>
      <trkpt lat="46.34898" lon="4.48265">
        <ele>376.8</ele>
        <time>2019-01-29T20:34:29Z</time>
      </trkpt>
      <trkpt lat="46.34892" lon="4.48259">
        <ele>377.4</ele>
        <time>2019-01-29T20:34:29Z</time>
      </trkpt>
      <trkpt lat="46.34882" lon="4.48251">
        <ele>377.9</ele>
        <time>2019-01-29T20:34:29Z</time>
      </trkpt>
      <trkpt lat="46.34866" lon="4.48243">
        <ele>378</ele>
        <time>2019-01-29T20:34:30Z</time>
      </trkpt>
      <trkpt lat="46.34844" lon="4.48236">
        <ele>378.2</ele>
        <time>2019-01-29T20:34:31Z</time>
      </trkpt>
      <trkpt lat="46.34817" lon="4.48225">
        <ele>378.9</ele>
        <time>2019-01-29T20:34:32Z</time>
      </trkpt>
      <trkpt lat="46.34801" lon="4.48217">
        <ele>379.4</ele>
        <time>2019-01-29T20:34:32Z</time>
      </trkpt>
      <trkpt lat="46.34789" lon="4.48206">
        <ele>379</ele>
        <time>2019-01-29T20:34:33Z</time>
      </trkpt>
      <trkpt lat="46.34771" lon="4.48197">
        <ele>379.6</ele>
        <time>2019-01-29T20:34:33Z</time>
      </trkpt>
      <trkpt lat="46.34762" lon="4.48191">
        <ele>379.3</ele>
        <time>2019-01-29T20:34:34Z</time>
      </trkpt>
      <trkpt lat="46.34759" lon="4.48185">
        <ele>379.1</ele>
        <time>2019-01-29T20:34:34Z</time>
      </trkpt>
      <trkpt lat="46.34756" lon="4.48177">
        <ele>378.9</ele>
        <time>2019-01-29T20:34:34Z</time>
      </trkpt>
      <trkpt lat="46.34755" lon="4.48161">
        <ele>378.3</ele>
        <time>2019-01-29T20:34:34Z</time>
      </trkpt>
      <trkpt lat="46.34756" lon="4.48143">
        <ele>377.5</ele>
        <time>2019-01-29T20:34:35Z</time>
      </trkpt>
      <trkpt lat="46.3476" lon="4.48127">
        <ele>377.2</ele>
        <time>2019-01-29T20:34:35Z</time>
      </trkpt>
      <trkpt lat="46.34766" lon="4.48103">
        <ele>376.9</ele>
        <time>2019-01-29T20:34:36Z</time>
      </trkpt>
      <trkpt lat="46.34769" lon="4.48067">
        <ele>378.1</ele>
        <time>2019-01-29T20:34:37Z</time>
      </trkpt>
      <trkpt lat="46.34778" lon="4.48023">
        <ele>379.3</ele>
        <time>2019-01-29T20:34:38Z</time>
      </trkpt>
      <trkpt lat="46.34791" lon="4.47981">
        <ele>379.2</ele>
        <time>2019-01-29T20:34:39Z</time>
      </trkpt>
      <trkpt lat="46.34801" lon="4.47946">
        <ele>378.4</ele>
        <time>2019-01-29T20:34:40Z</time>
      </trkpt>
      <trkpt lat="46.34804" lon="4.47898">
        <ele>381.8</ele>
        <time>2019-01-29T20:34:41Z</time>
      </trkpt>
      <trkpt lat="46.34811" lon="4.47857">
        <ele>384.1</ele>
        <time>2019-01-29T20:34:42Z</time>
      </trkpt>
      <trkpt lat="46.34821" lon="4.47824">
        <ele>384</ele>
        <time>2019-01-29T20:34:42Z</time>
      </trkpt>
      <trkpt lat="46.34825" lon="4.47793">
        <ele>383.9</ele>
        <time>2019-01-29T20:34:43Z</time>
      </trkpt>
      <trkpt lat="46.34821" lon="4.47747">
        <ele>384.1</ele>
        <time>2019-01-29T20:34:44Z</time>
      </trkpt>
      <trkpt lat="46.34796" lon="4.47665">
        <ele>385</ele>
        <time>2019-01-29T20:34:46Z</time>
      </trkpt>
      <trkpt lat="46.34792" lon="4.47628">
        <ele>385</ele>
        <time>2019-01-29T20:34:47Z</time>
      </trkpt>
      <trkpt lat="46.34792" lon="4.47614">
        <ele>385</ele>
        <time>2019-01-29T20:34:48Z</time>
      </trkpt>
      <trkpt lat="46.348" lon="4.47609">
        <ele>384.4</ele>
        <time>2019-01-29T20:34:48Z</time>
      </trkpt>
      <trkpt lat="46.34804" lon="4.47607">
        <ele>384.2</ele>
        <time>2019-01-29T20:34:48Z</time>
      </trkpt>
      <trkpt lat="46.34806" lon="4.47606">
        <ele>384.2</ele>
        <time>2019-01-29T20:34:48Z</time>
      </trkpt>
      <trkpt lat="46.34826" lon="4.47595">
        <ele>385.3</ele>
        <time>2019-01-29T20:34:49Z</time>
      </trkpt>
      <trkpt lat="46.34844" lon="4.47578">
        <ele>387.9</ele>
        <time>2019-01-29T20:34:49Z</time>
      </trkpt>
      <trkpt lat="46.34886" lon="4.47542">
        <ele>394.3</ele>
        <time>2019-01-29T20:34:51Z</time>
      </trkpt>
      <trkpt lat="46.34887" lon="4.47557">
        <ele>393.8</ele>
        <time>2019-01-29T20:34:51Z</time>
      </trkpt>
      <trkpt lat="46.3489" lon="4.47566">
        <ele>393.2</ele>
        <time>2019-01-29T20:34:52Z</time>
      </trkpt>
      <trkpt lat="46.34911" lon="4.47604">
        <ele>389</ele>
        <time>2019-01-29T20:34:53Z</time>
      </trkpt>
      <trkpt lat="46.34924" lon="4.47621">
        <ele>386.7</ele>
        <time>2019-01-29T20:34:53Z</time>
      </trkpt>
      <trkpt lat="46.34938" lon="4.47634">
        <ele>386.5</ele>
        <time>2019-01-29T20:34:54Z</time>
      </trkpt>
      <trkpt lat="46.34944" lon="4.47642">
        <ele>386.9</ele>
        <time>2019-01-29T20:34:54Z</time>
      </trkpt>
      <trkpt lat="46.34958" lon="4.47688">
        <ele>389.3</ele>
        <time>2019-01-29T20:34:55Z</time>
      </trkpt>
      <trkpt lat="46.34993" lon="4.47797">
        <ele>395.7</ele>
        <time>2019-01-29T20:34:58Z</time>
      </trkpt>
      <trkpt lat="46.34999" lon="4.47808">
        <ele>396.9</ele>
        <time>2019-01-29T20:34:58Z</time>
      </trkpt>
      <trkpt lat="46.35008" lon="4.47817">
        <ele>397.6</ele>
        <time>2019-01-29T20:34:59Z</time>
      </trkpt>
      <trkpt lat="46.35022" lon="4.47819">
        <ele>398.6</ele>
        <time>2019-01-29T20:34:59Z</time>
      </trkpt>
      <trkpt lat="46.35036" lon="4.47819">
        <ele>399.2</ele>
        <time>2019-01-29T20:35:00Z</time>
      </trkpt>
      <trkpt lat="46.35096" lon="4.47809">
        <ele>398.3</ele>
        <time>2019-01-29T20:35:02Z</time>
      </trkpt>
      <trkpt lat="46.3513" lon="4.47805">
        <ele>397.4</ele>
        <time>2019-01-29T20:35:03Z</time>
      </trkpt>
      <trkpt lat="46.35132" lon="4.47808">
        <ele>397.1</ele>
        <time>2019-01-29T20:35:03Z</time>
      </trkpt>
      <trkpt lat="46.35131" lon="4.47814">
        <ele>396.7</ele>
        <time>2019-01-29T20:35:03Z</time>
      </trkpt>
      <trkpt lat="46.35108" lon="4.47846">
        <ele>394.8</ele>
        <time>2019-01-29T20:35:04Z</time>
      </trkpt>
      <trkpt lat="46.35099" lon="4.47863">
        <ele>393.7</ele>
        <time>2019-01-29T20:35:05Z</time>
      </trkpt>
      <trkpt lat="46.35094" lon="4.47883">
        <ele>392.1</ele>
        <time>2019-01-29T20:35:05Z</time>
      </trkpt>
      <trkpt lat="46.35094" lon="4.47897">
        <ele>391.2</ele>
        <time>2019-01-29T20:35:06Z</time>
      </trkpt>
      <trkpt lat="46.35098" lon="4.47929">
        <ele>389.4</ele>
        <time>2019-01-29T20:35:06Z</time>
      </trkpt>
      <trkpt lat="46.35099" lon="4.4796">
        <ele>387.4</ele>
        <time>2019-01-29T20:35:07Z</time>
      </trkpt>
      <trkpt lat="46.35098" lon="4.47987">
        <ele>385.7</ele>
        <time>2019-01-29T20:35:08Z</time>
      </trkpt>
      <trkpt lat="46.35099" lon="4.48012">
        <ele>383.8</ele>
        <time>2019-01-29T20:35:08Z</time>
      </trkpt>
      <trkpt lat="46.35108" lon="4.48056">
        <ele>380.6</ele>
        <time>2019-01-29T20:35:09Z</time>
      </trkpt>
      <trkpt lat="46.35119" lon="4.4808">
        <ele>378.7</ele>
        <time>2019-01-29T20:35:10Z</time>
      </trkpt>
      <trkpt lat="46.3513" lon="4.48093">
        <ele>376.7</ele>
        <time>2019-01-29T20:35:10Z</time>
      </trkpt>
      <trkpt lat="46.35162" lon="4.48123">
        <ele>372.3</ele>
        <time>2019-01-29T20:35:12Z</time>
      </trkpt>
      <trkpt lat="46.35211" lon="4.48165">
        <ele>367</ele>
        <time>2019-01-29T20:35:14Z</time>
      </trkpt>
      <trkpt lat="46.35221" lon="4.48167">
        <ele>367</ele>
        <time>2019-01-29T20:35:14Z</time>
      </trkpt>
      <trkpt lat="46.35226" lon="4.48167">
        <ele>367.1</ele>
        <time>2019-01-29T20:35:14Z</time>
      </trkpt>
      <trkpt lat="46.3525" lon="4.48156">
        <ele>367.6</ele>
        <time>2019-01-29T20:35:15Z</time>
      </trkpt>
      <trkpt lat="46.35287" lon="4.48141">
        <ele>369.6</ele>
        <time>2019-01-29T20:35:16Z</time>
      </trkpt>
      <trkpt lat="46.35307" lon="4.48134">
        <ele>371.2</ele>
        <time>2019-01-29T20:35:17Z</time>
      </trkpt>
      <trkpt lat="46.35348" lon="4.48125">
        <ele>374.1</ele>
        <time>2019-01-29T20:35:18Z</time>
      </trkpt>
      <trkpt lat="46.35372" lon="4.48123">
        <ele>376.1</ele>
        <time>2019-01-29T20:35:19Z</time>
      </trkpt>
      <trkpt lat="46.3542" lon="4.48129">
        <ele>379</ele>
        <time>2019-01-29T20:35:21Z</time>
      </trkpt>
      <trkpt lat="46.35433" lon="4.48126">
        <ele>380.2</ele>
        <time>2019-01-29T20:35:21Z</time>
      </trkpt>
      <trkpt lat="46.35441" lon="4.48119">
        <ele>381.7</ele>
        <time>2019-01-29T20:35:21Z</time>
      </trkpt>
    </trkseg>
  </trk>
</gpx>